Time;durP1;ratioP1;P1;durP2;ratioP2;P2;SDS_P1;SDS_P2;PMS_P1;PMS_P2;Temp;Humidity;BMP_temperature;BMP_pressure;BME280_temperature;BME280_humidity;BME280_pressure;Samples;Min_cycle;Max_cycle;Signal;HPM_P1;HPM_P2
2022/05/04 00:01:28;;;;;;;7.03;3.25;;;;;;;11.62;100.00;100147.97;7393838;19;20092;-55
2022/05/04 00:03:55;;;;;;;5.20;2.88;;;;;;;11.61;100.00;100146.41;7392559;19;20451;-55
2022/05/04 00:06:22;;;;;;;11.43;4.18;;;;;;;11.62;100.00;100152.75;7397330;19;20014;-55
2022/05/04 00:08:48;;;;;;;10.40;3.90;;;;;;;11.58;100.00;100141.03;7393803;19;20091;-55
2022/05/04 00:11:14;;;;;;;5.32;1.70;;;;;;;11.51;100.00;100136.56;7392903;19;20018;-55
2022/05/04 00:13:41;;;;;;;9.07;2.97;;;;;;;11.50;100.00;100137.06;7393116;19;20011;-55
2022/05/04 00:16:07;;;;;;;8.35;3.92;;;;;;;11.51;100.00;100144.16;7397171;19;20503;-55
2022/05/04 00:18:33;;;;;;;5.32;2.80;;;;;;;11.49;100.00;100143.88;7393626;19;20066;-57
2022/05/04 00:20:59;;;;;;;7.13;3.08;;;;;;;11.44;100.00;100143.28;7391243;19;20011;-55
2022/05/04 00:23:26;;;;;;;5.95;3.10;;;;;;;11.38;100.00;100149.97;7391336;19;20462;-57
2022/05/04 00:25:52;;;;;;;13.43;3.45;;;;;;;11.30;100.00;100143.22;7393674;19;20018;-55
2022/05/04 00:28:18;;;;;;;9.27;3.40;;;;;;;11.37;100.00;100134.47;7391266;19;20022;-55
2022/05/04 00:30:45;;;;;;;8.15;3.00;;;;;;;11.57;100.00;100134.66;7387856;19;20030;-57
2022/05/04 00:33:11;;;;;;;6.13;2.42;;;;;;;11.71;100.00;100139.56;7388652;19;20011;-57
2022/05/04 00:35:37;;;;;;;8.30;2.40;;;;;;;11.70;100.00;100138.00;7391851;19;20048;-58
2022/05/04 00:38:04;;;;;;;11.75;4.82;;;;;;;11.57;100.00;100134.66;7387700;19;20015;-57
2022/05/04 00:40:30;;;;;;;6.80;3.28;;;;;;;11.60;100.00;100128.16;7387732;19;20751;-58
2022/05/04 00:42:56;;;;;;;18.42;5.25;;;;;;;11.59;100.00;100125.81;7390599;19;20015;-58
2022/05/04 00:45:23;;;;;;;9.25;3.35;;;;;;;11.54;100.00;100124.47;7397852;19;20029;-58
2022/05/04 00:47:49;;;;;;;5.22;2.92;;;;;;;11.60;100.00;100125.34;7398828;19;20014;-55
2022/05/04 00:50:15;;;;;;;5.53;2.08;;;;;;;11.69;100.00;100128.13;7397619;19;20010;-55
2022/05/04 00:52:43;;;;;;;7.00;3.10;;;;;;;11.72;100.00;100124.34;7395988;19;20338;-57
2022/05/04 00:55:10;;;;;;;10.15;4.07;;;;;;;11.72;100.00;100124.34;7398742;19;20446;-54
2022/05/04 01:00:25;;;;;;;8.32;2.78;;;;;;;12.06;100.00;100123.75;7393189;19;20014;-58
2022/05/04 01:02:51;;;;;;;10.50;4.10;;;;;;;12.02;100.00;100125.19;7392372;19;20096;-57
2022/05/04 01:05:17;;;;;;;12.45;3.25;;;;;;;11.69;100.00;100119.75;7397078;19;20362;-58
2022/05/04 01:07:46;;;;;;;8.27;3.20;;;;;;;11.73;100.00;100123.13;7395038;19;20006;-57
2022/05/04 01:10:14;;;;;;;6.18;2.17;;;;;;;11.77;100.00;100120.13;7394010;19;20031;-57
2022/05/04 01:12:50;;;;;;;3.63;2.70;;;;;;;11.78;100.00;100116.84;7394111;19;20022;-57
2022/05/04 01:15:17;;;;;;;7.07;3.25;;;;;;;11.85;100.00;100110.91;7396545;19;20009;-57
2022/05/04 01:17:44;;;;;;;5.43;2.95;;;;;;;11.95;100.00;100109.56;7393319;19;20006;-57
2022/05/04 01:20:11;;;;;;;7.40;3.22;;;;;;;11.94;100.00;100105.25;7393483;19;20335;-57
2022/05/04 01:22:37;;;;;;;17.40;3.85;;;;;;;11.92;100.00;100104.19;7398695;19;20328;-57
2022/05/04 01:25:04;;;;;;;4.75;3.35;;;;;;;11.91;100.00;100109.00;7391353;19;20028;-58
2022/05/04 01:27:30;;;;;;;9.85;3.33;;;;;;;11.87;100.00;100110.44;7394385;19;20010;-57
2022/05/04 01:29:56;;;;;;;8.95;2.70;;;;;;;11.89;100.00;100110.75;7394370;19;20450;-57
2022/05/04 01:32:22;;;;;;;7.85;3.20;;;;;;;11.93;100.00;100105.75;7393594;19;20010;-58
2022/05/04 01:34:49;;;;;;;8.70;3.35;;;;;;;11.96;100.00;100105.56;7393863;19;20036;-57
2022/05/04 01:37:15;;;;;;;13.32;4.55;;;;;;;11.99;100.00;100101.81;7393140;19;20013;-58
2022/05/04 01:39:41;;;;;;;7.75;3.55;;;;;;;11.98;100.00;100103.06;7393681;19;20010;-58
2022/05/04 01:42:13;;;;;;;9.00;1.83;;;;;;;11.92;100.00;100104.97;7391705;19;20015;-58
2022/05/04 01:44:41;;;;;;;9.10;3.38;;;;;;;11.79;100.00;100101.69;7392000;19;20012;-57
2022/05/04 01:47:08;;;;;;;15.00;2.88;;;;;;;11.76;100.00;100104.66;7393546;19;20105;-57
2022/05/04 01:49:34;;;;;;;12.30;3.28;;;;;;;11.84;100.00;100097.44;7393532;19;20077;-57
2022/05/04 01:52:00;;;;;;;10.93;3.83;;;;;;;11.80;100.00;100100.41;7392465;19;20015;-57
2022/05/04 01:54:27;;;;;;;9.45;3.67;;;;;;;11.78;100.00;100105.69;7391340;19;20003;-58
2022/05/04 01:56:53;;;;;;;10.27;3.15;;;;;;;11.80;100.00;100096.88;7392551;19;20014;-57
2022/05/04 01:59:19;;;;;;;14.40;4.28;;;;;;;11.83;100.00;100093.88;7391582;19;20015;-57
2022/05/04 02:01:47;;;;;;;10.43;2.35;;;;;;;11.84;100.00;100098.22;7392072;19;20013;-57
2022/05/04 02:04:14;;;;;;;17.90;3.90;;;;;;;11.83;100.00;100096.69;7391079;19;20490;-57
2022/05/04 02:06:41;;;;;;;4.03;2.63;;;;;;;11.84;100.00;100098.22;7392572;19;20019;-57
2022/05/04 02:09:07;;;;;;;8.07;3.28;;;;;;;11.86;100.00;100090.16;7392230;19;20010;-57
2022/05/04 02:11:35;;;;;;;6.90;2.67;;;;;;;11.88;100.00;100095.25;7392407;19;20043;-57
2022/05/04 02:14:02;;;;;;;5.88;2.33;;;;;;;11.87;100.00;100091.66;7391706;19;20484;-58
2022/05/04 02:16:29;;;;;;;8.23;3.35;;;;;;;11.87;100.00;100090.91;7397593;19;20343;-57
2022/05/04 02:18:55;;;;;;;7.13;2.97;;;;;;;11.81;100.00;100092.81;7391767;19;20022;-57
2022/05/04 02:21:22;;;;;;;7.05;2.90;;;;;;;11.79;100.00;100082.13;7393521;19;20070;-57
2022/05/04 02:23:48;;;;;;;6.47;2.47;;;;;;;11.75;100.00;100084.34;7391494;19;20033;-57
2022/05/04 02:26:14;;;;;;;16.02;2.97;;;;;;;11.78;100.00;100080.59;7395748;19;20038;-58
2022/05/04 02:28:40;;;;;;;6.00;2.42;;;;;;;11.76;100.00;100091.47;7392456;19;20018;-58
2022/05/04 02:31:06;;;;;;;7.65;2.88;;;;;;;11.80;100.00;100089.25;7390856;19;20034;-57
2022/05/04 02:33:33;;;;;;;7.90;3.47;;;;;;;11.87;100.00;100079.72;7391605;19;20014;-57
2022/05/04 02:38:43;;;;;;;7.15;3.08;;;;;;;12.10;100.00;100079.69;7390775;19;20018;-57
2022/05/04 02:41:09;;;;;;;14.60;3.60;;;;;;;12.10;100.00;100076.91;7392565;19;20018;-58
2022/05/04 02:43:36;;;;;;;7.82;3.72;;;;;;;12.11;100.00;100084.00;7391302;19;20006;-58
2022/05/04 02:46:16;;;;;;;21.55;4.70;;;;;;;12.17;100.00;100075.75;7394956;19;20465;-57
2022/05/04 02:48:42;;;;;;;6.40;2.65;;;;;;;12.19;100.00;100068.41;7390573;19;20015;-57
2022/05/04 02:51:09;;;;;;;12.85;4.18;;;;;;;12.16;100.00;100074.97;7390498;19;20010;-58
2022/05/04 02:53:35;;;;;;;4.85;2.15;;;;;;;12.09;100.00;100075.34;7391555;19;20069;-58
2022/05/04 02:56:02;;;;;;;5.80;2.97;;;;;;;12.19;100.00;100071.19;7394041;19;20010;-58
2022/05/04 02:58:28;;;;;;;6.85;3.58;;;;;;;12.14;100.00;100066.31;7389157;19;20410;-58
2022/05/04 03:00:54;;;;;;;8.43;3.25;;;;;;;12.12;100.00;100074.41;7391411;19;20042;-58
2022/05/04 03:03:20;;;;;;;7.50;4.45;;;;;;;12.15;100.00;100067.84;7390762;19;20010;-58
2022/05/04 03:05:47;;;;;;;9.80;2.95;;;;;;;12.18;100.00;100068.91;7392760;19;20043;-58
2022/05/04 03:08:13;;;;;;;8.90;3.03;;;;;;;12.12;100.00;100066.03;7390833;19;20045;-57
2022/05/04 03:13:23;;;;;;;6.30;3.80;;;;;;;12.21;100.00;100069.97;7389892;19;20074;-58
2022/05/04 03:15:49;;;;;;;3.63;2.55;;;;;;;12.18;100.00;100058.50;7393628;19;20014;-58
2022/05/04 03:18:16;;;;;;;3.22;2.03;;;;;;;12.15;100.00;100067.84;7389514;19;20632;-58
2022/05/04 03:20:42;;;;;;;13.52;2.70;;;;;;;12.21;100.00;100061.59;7391066;19;20011;-58
2022/05/04 03:23:08;;;;;;;7.07;2.55;;;;;;;12.22;100.00;100065.91;7390514;19;20010;-58
2022/05/04 03:25:37;;;;;;;4.70;1.75;;;;;;;12.25;100.00;100059.38;7390693;19;20502;-58
2022/05/04 03:28:03;;;;;;;7.55;3.08;;;;;;;12.27;100.00;100065.22;7387470;19;20015;-58
2022/05/04 03:30:29;;;;;;;9.63;3.13;;;;;;;12.27;100.00;100063.22;7388473;19;20473;-58
2022/05/04 03:32:56;;;;;;;7.43;3.30;;;;;;;12.24;100.00;100055.03;7388439;19;20018;-58
2022/05/04 03:35:22;;;;;;;3.58;2.33;;;;;;;12.18;100.00;100058.50;7390770;19;20819;-58
2022/05/04 03:37:48;;;;;;;8.27;2.83;;;;;;;12.15;100.00;100053.88;7388114;19;20014;-58
2022/05/04 03:40:15;;;;;;;4.60;1.83;;;;;;;12.21;100.00;100053.22;7387895;19;20007;-58
2022/05/04 03:42:41;;;;;;;7.43;3.65;;;;;;;12.21;100.00;100050.41;7388408;19;20006;-58
2022/05/04 03:45:08;;;;;;;8.57;2.25;;;;;;;12.18;100.00;100038.19;7389507;19;20350;-59
2022/05/04 03:47:34;;;;;;;4.60;2.35;;;;;;;12.23;100.00;100053.50;7390121;19;20021;-59
2022/05/04 03:50:00;;;;;;;9.60;3.42;;;;;;;12.26;100.00;100049.75;7389684;19;20094;-59
2022/05/04 03:52:27;;;;;;;7.57;1.80;;;;;;;12.29;100.00;100045.97;7390090;19;20011;-59
2022/05/04 03:54:53;;;;;;;5.63;3.22;;;;;;;12.29;100.00;100048.75;7390839;19;20010;-59
2022/05/04 03:57:19;;;;;;;16.38;3.35;;;;;;;12.25;100.00;100046.19;7389140;19;20379;-59
2022/05/04 03:59:45;;;;;;;7.65;1.83;;;;;;;12.30;100.00;100042.69;7389607;19;20007;-59
2022/05/04 04:02:12;;;;;;;8.10;2.97;;;;;;;12.34;100.00;100045.31;7388432;19;20618;-60
2022/05/04 04:04:38;;;;;;;5.28;2.13;;;;;;;12.39;100.00;100047.44;7386497;19;20022;-59
2022/05/04 04:07:04;;;;;;;4.35;2.40;;;;;;;12.44;100.00;100043.94;7389831;19;20011;-59
2022/05/04 04:09:30;;;;;;;12.90;3.13;;;;;;;12.45;100.00;100039.91;7388926;19;20349;-60
2022/05/04 04:11:56;;;;;;;3.30;2.03;;;;;;;12.47;100.00;100049.34;7388843;19;20014;-59
2022/05/04 04:14:23;;;;;;;5.28;2.40;;;;;;;12.48;100.00;100033.31;7389909;19;20025;-60
2022/05/04 04:16:49;;;;;;;7.15;2.22;;;;;;;12.51;100.00;100037.97;7392674;19;20024;-60
2022/05/04 04:19:15;;;;;;;6.93;2.45;;;;;;;12.46;100.00;100030.25;7397276;19;20015;-60
2022/05/04 04:21:53;;;;;;;4.07;2.72;;;;;;;12.42;100.00;100024.88;7397450;19;20411;-60
2022/05/04 04:24:23;;;;;;;3.50;1.58;;;;;;;12.49;100.00;100023.72;7395503;19;20033;-60
2022/05/04 04:26:50;;;;;;;4.47;1.50;;;;;;;12.48;100.00;100022.16;7399991;19;20112;-60
2022/05/04 04:29:16;;;;;;;7.75;2.50;;;;;;;12.52;100.00;100022.72;7396290;19;20014;-60
2022/05/04 04:31:43;;;;;;;3.95;1.23;;;;;;;12.52;100.00;100017.91;7396001;19;20022;-60
2022/05/04 04:34:10;;;;;;;13.27;2.38;;;;;;;12.57;100.00;100024.84;7395848;19;20010;-60
2022/05/04 04:36:36;;;;;;;5.35;3.08;;;;;;;12.56;100.00;100018.47;7396207;19;20070;-60
2022/05/04 04:39:04;;;;;;;6.03;1.85;;;;;;;12.59;100.00;100014.72;7395209;19;20018;-60
2022/05/04 04:41:30;;;;;;;5.47;1.80;;;;;;;12.55;100.00;100011.38;7395654;19;20017;-60
2022/05/04 04:43:57;;;;;;;6.22;2.38;;;;;;;12.46;100.00;100013.50;7394098;19;20011;-60
2022/05/04 04:46:23;;;;;;;5.38;2.38;;;;;;;12.47;100.00;100018.63;7400355;19;20628;-59
2022/05/04 04:48:50;;;;;;;1.60;1.35;;;;;;;12.49;100.00;100020.91;7395745;19;20099;-60
2022/05/04 04:51:16;;;;;;;3.90;1.92;;;;;;;12.52;100.00;100017.13;7394737;19;20015;-60
2022/05/04 04:53:43;;;;;;;7.28;1.98;;;;;;;12.51;100.00;100018.41;7395669;19;20044;-60
2022/05/04 04:56:09;;;;;;;7.40;1.98;;;;;;;12.55;100.00;100016.19;7398650;19;20032;-61
2022/05/04 04:58:35;;;;;;;11.15;2.63;;;;;;;12.54;100.00;100020.25;7394593;19;20010;-61
2022/05/04 05:01:02;;;;;;;5.85;2.65;;;;;;;12.58;100.00;100026.41;7395189;19;20034;-62
2022/05/04 05:03:29;;;;;;;5.22;2.72;;;;;;;12.57;100.00;100024.84;7394473;19;20010;-61
2022/05/04 05:05:55;;;;;;;6.88;2.58;;;;;;;12.51;100.00;100024.00;7398675;19;20346;-61
2022/05/04 05:08:21;;;;;;;3.95;2.67;;;;;;;12.62;100.00;100018.56;7394756;19;20017;-61
2022/05/04 05:10:47;;;;;;;4.78;2.95;;;;;;;12.63;100.00;100022.91;7395356;19;20018;-61
2022/05/04 05:13:14;;;;;;;4.15;1.38;;;;;;;12.56;100.00;100014.94;7394997;19;20021;-61
2022/05/04 05:18:25;;;;;;;1.42;1.25;;;;;;;12.51;100.00;100016.38;7393529;19;20018;-61
2022/05/04 05:20:51;;;;;;;2.55;1.60;;;;;;;12.56;100.00;100012.88;7394978;19;20011;-61
2022/05/04 05:23:19;;;;;;;7.00;1.95;;;;;;;12.58;100.00;100015.97;7393688;19;20022;-61
2022/05/04 05:25:45;;;;;;;5.25;1.50;;;;;;;12.67;100.00;100018.66;7396229;19;20459;-61
2022/05/04 05:28:11;;;;;;;2.92;1.35;;;;;;;12.83;100.00;100014.56;7391789;19;20086;-61
2022/05/04 05:30:37;;;;;;;9.40;1.55;;;;;;;12.83;100.00;100020.16;7392605;19;20029;-61
2022/05/04 05:33:03;;;;;;;6.43;1.92;;;;;;;12.96;100.00;100017.78;7392842;19;20352;-62
2022/05/04 05:35:29;;;;;;;3.92;1.05;;;;;;;13.04;100.00;100024.50;7396236;19;20037;-61
2022/05/04 05:37:56;;;;;;;3.60;1.63;;;;;;;13.03;100.00;100016.59;7392840;19;20354;-61
2022/05/04 05:40:22;;;;;;;7.18;1.63;;;;;;;13.08;100.00;100015.94;7393916;19;20062;-61
2022/05/04 05:42:48;;;;;;;4.88;1.25;;;;;;;13.10;100.00;100010.63;7393850;19;20021;-61
2022/05/04 05:45:14;;;;;;;5.55;1.58;;;;;;;13.16;100.00;100009.44;7393061;19;20010;-61
2022/05/04 05:47:40;;;;;;;5.13;1.88;;;;;;;13.17;100.00;99994.19;7394026;19;20014;-61
2022/05/04 05:50:08;;;;;;;2.55;1.50;;;;;;;13.31;100.00;99998.94;7393243;19;20015;-62
2022/05/04 05:52:34;;;;;;;5.63;2.72;;;;;;;13.24;100.00;99990.97;7392950;19;20043;-61
2022/05/04 05:55:01;;;;;;;3.08;1.83;;;;;;;13.19;100.00;99993.72;7394131;19;20017;-61
2022/05/04 05:57:27;;;;;;;2.35;0.73;;;;;;;13.25;100.00;99988.97;7393138;19;20033;-62
2022/05/04 05:59:53;;;;;;;3.88;0.95;;;;;;;13.29;100.00;99983.91;7392353;19;20454;-61
2022/05/04 06:02:21;;;;;;;2.58;1.00;;;;;;;13.37;100.00;99999.78;7391860;19;20015;-61
2022/05/04 06:04:47;;;;;;;2.38;1.58;;;;;;;13.47;100.00;99992.75;7392802;19;20014;-61
2022/05/04 06:07:13;;;;;;;2.92;0.75;;;;;;;13.52;100.00;100002.47;7393174;19;20101;-61
2022/05/04 06:09:40;;;;;;;3.60;1.23;;;;;;;13.65;100.00;99995.25;7392747;19;20010;-61
2022/05/04 06:12:07;;;;;;;5.80;2.80;;;;;;;13.77;100.00;100000.97;7392457;19;20027;-61
2022/05/04 06:14:33;;;;;;;6.95;1.83;;;;;;;13.76;100.00;99993.81;7392268;19;20336;-61
2022/05/04 06:16:59;;;;;;;7.93;2.22;;;;;;;13.80;100.00;99997.16;7392717;19;20010;-61
2022/05/04 06:19:25;;;;;;;9.05;2.75;;;;;;;13.87;100.00;99993.94;7392562;19;20477;-61
2022/05/04 06:21:51;;;;;;;8.55;2.65;;;;;;;13.91;100.00;99994.47;7395500;19;20017;-61
2022/05/04 06:24:17;;;;;;;5.07;1.70;;;;;;;14.00;100.00;99997.09;7391696;19;20033;-61
2022/05/04 06:26:44;;;;;;;14.05;2.88;;;;;;;14.03;100.00;100001.72;7395995;19;20041;-61
2022/05/04 06:29:10;;;;;;;1.75;1.30;;;;;;;14.01;100.00;100010.59;7390964;19;20003;-61
2022/05/04 06:34:22;;;;;;;4.38;1.95;;;;;;;14.04;100.00;100003.25;7392770;19;20011;-61
2022/05/04 06:36:48;;;;;;;14.32;2.10;;;;;;;14.07;100.00;99996.66;7392672;19;20018;-61
2022/05/04 06:39:15;;;;;;;4.30;1.08;;;;;;;14.06;100.00;99995.13;7390810;19;20539;-61
2022/05/04 06:41:41;;;;;;;1.13;0.95;;;;;;;14.11;100.00;100008.41;7391256;19;20010;-62
2022/05/04 06:44:08;;;;;;;4.35;2.13;;;;;;;14.10;100.00;100001.25;7391195;19;20025;-62
2022/05/04 06:46:38;;;;;;;7.05;2.10;;;;;;;14.06;100.00;99995.91;7392116;19;20011;-62
2022/05/04 06:49:04;;;;;;;2.97;1.63;;;;;;;14.09;100.00;99999.75;7391183;19;20006;-61
2022/05/04 06:51:30;;;;;;;2.22;1.20;;;;;;;14.12;100.00;99999.50;7391558;19;20010;-62
2022/05/04 06:53:57;;;;;;;1.30;1.20;;;;;;;14.06;100.00;100000.72;7391746;19;20018;-62
2022/05/04 06:56:23;;;;;;;1.25;0.90;;;;;;;14.03;100.00;100012.94;7395128;19;20017;-62
2022/05/04 06:58:49;;;;;;;1.73;1.27;;;;;;;14.04;100.00;100018.03;7392234;19;20054;-62
2022/05/04 07:01:15;;;;;;;4.07;1.17;;;;;;;14.03;100.00;100007.34;7391458;19;20011;-62
2022/05/04 07:03:41;;;;;;;1.63;0.88;;;;;;;13.88;100.00;100007.44;7390939;19;20010;-61
2022/05/04 07:06:07;;;;;;;2.40;0.77;;;;;;;13.97;100.00;100006.53;7394642;19;20007;-61
2022/05/04 07:08:34;;;;;;;4.57;2.33;;;;;;;14.00;100.00;100008.31;7391266;19;20030;-61
2022/05/04 07:11:00;;;;;;;2.97;0.88;;;;;;;14.00;100.00;100008.31;7391283;19;20540;-62
2022/05/04 07:13:27;;;;;;;1.70;1.33;;;;;;;14.01;100.00;100002.19;7390978;19;20031;-62
2022/05/04 07:15:55;;;;;;;4.70;1.17;;;;;;;13.99;100.00;100009.59;7394288;19;20017;-62
2022/05/04 07:18:21;;;;;;;1.05;0.88;;;;;;;14.01;100.00;100015.47;7391148;19;20022;-62
2022/05/04 07:20:47;;;;;;;2.00;1.02;;;;;;;14.03;100.00;100012.94;7390882;19;20350;-62
2022/05/04 07:23:13;;;;;;;4.85;1.17;;;;;;;14.07;100.00;100014.25;7389821;19;20021;-61
2022/05/04 07:25:40;;;;;;;5.35;1.35;;;;;;;14.12;100.00;100015.56;7392293;19;20010;-61
2022/05/04 07:28:06;;;;;;;5.28;1.90;;;;;;;14.10;100.00;100009.66;7389768;19;20613;-62
2022/05/04 07:30:32;;;;;;;4.93;1.55;;;;;;;14.16;100.00;100016.09;7390794;19;20018;-61
2022/05/04 07:32:59;;;;;;;4.18;1.33;;;;;;;14.31;100.00;100016.78;7389895;19;20018;-62
2022/05/04 07:35:25;;;;;;;4.82;1.58;;;;;;;14.36;100.00;100007.63;7392347;19;20007;-62
2022/05/04 07:37:51;;;;;;;9.77;2.15;;;;;;;14.48;100.00;100009.25;7389310;19;20447;-61
2022/05/04 07:43:02;;;;;;;3.15;0.98;;;;;;;14.59;100.00;100009.34;7389007;19;20458;-62
2022/05/04 07:45:28;;;;;;;2.60;1.05;;;;;;;14.57;100.00;100009.06;7391929;19;20006;-62
2022/05/04 07:47:54;;;;;;;4.88;0.90;;;;;;;14.49;100.00;100010.78;7388071;19;20023;-62
2022/05/04 07:50:20;;;;;;;12.13;2.53;;;;;;;14.50;100.00;100017.16;7389938;19;20648;-62
2022/05/04 07:52:47;;;;;;;8.93;2.42;;;;;;;14.44;100.00;100008.72;7398230;19;20014;-62
2022/05/04 07:55:14;;;;;;;4.28;1.38;;;;;;;14.36;100.00;100010.41;7398364;19;20356;-61
2022/05/04 07:57:41;;;;;;;7.18;2.58;;;;;;;14.29;100.00;100006.03;7396827;19;20078;-61
2022/05/04 08:05:40;;;;;;;9.10;1.60;;;;;;;14.18;100.00;100013.56;7400197;19;20504;-61
2022/05/04 08:08:07;;;;;;;3.75;1.17;;;;;;;14.20;100.00;100020.22;7395877;19;20018;-61
2022/05/04 08:10:33;;;;;;;4.35;2.30;;;;;;;14.23;100.00;100010.03;7397468;19;20087;-62
2022/05/04 08:12:59;;;;;;;4.80;1.40;;;;;;;14.31;100.00;100003.50;7397100;19;20470;-61
2022/05/04 08:15:27;;;;;;;2.92;1.60;;;;;;;14.42;100.00;100002.84;7400269;19;20354;-62
2022/05/04 08:17:53;;;;;;;4.93;2.13;;;;;;;14.45;100.00;100004.63;7397732;19;20399;-61
2022/05/04 08:20:20;;;;;;;1.90;1.27;;;;;;;14.42;100.00;100005.66;7396759;19;20497;-61
2022/05/04 08:22:47;;;;;;;5.60;1.67;;;;;;;14.43;100.00;100012.78;7397601;19;20014;-61
2022/05/04 08:25:13;;;;;;;2.30;1.60;;;;;;;14.58;100.00;99998.59;7396951;19;20095;-61
2022/05/04 08:27:39;;;;;;;3.05;1.77;;;;;;;14.69;100.00;99999.47;7396614;19;20011;-61
2022/05/04 08:30:06;;;;;;;4.13;2.33;;;;;;;14.72;100.00;100001.28;7395838;19;20021;-61
2022/05/04 08:32:32;;;;;;;3.55;1.30;;;;;;;14.87;100.00;99999.06;7396399;19;20023;-61
2022/05/04 08:34:59;;;;;;;3.00;1.33;;;;;;;15.00;100.00;99993.78;7398116;19;20011;-61
2022/05/04 08:37:29;;;;;;;2.17;1.27;;;;;;;15.06;100.00;99991.75;7394587;19;20014;-62
2022/05/04 08:39:56;;;;;;;2.97;1.58;;;;;;;15.06;100.00;99986.16;7395178;19;20019;-62
2022/05/04 08:42:23;;;;;;;7.68;1.42;;;;;;;15.05;100.00;99987.41;7394861;19;20358;-61
2022/05/04 08:44:55;;;;;;;3.83;1.83;;;;;;;15.11;100.00;99987.44;7395754;19;20097;-61
2022/05/04 08:47:22;;;;;;;6.82;2.42;;;;;;;15.43;100.00;99985.25;7395624;19;20021;-61
2022/05/04 08:49:49;;;;;;;6.05;1.92;;;;;;;15.50;100.00;99991.19;7395160;19;20021;-61
2022/05/04 08:52:15;;;;;;;5.70;1.60;;;;;;;15.35;100.00;99987.03;7395000;19;20017;-62
2022/05/04 08:54:45;;;;;;;4.65;1.15;;;;;;;15.34;100.00;99985.47;7396160;19;20096;-61
2022/05/04 08:57:11;;;;;;;3.83;1.27;;;;;;;15.38;100.00;99994.41;7394124;19;20011;-61
2022/05/04 08:59:37;;;;;;;2.47;1.58;;;;;;;15.48;100.00;99984.56;7392992;19;20355;-61
2022/05/04 09:02:04;;;;;;;2.88;1.45;;;;;;;15.59;100.00;99993.00;7392353;19;20363;-61
2022/05/04 09:04:31;;;;;;;2.55;1.38;;;;;;;15.71;100.00;99989.72;7393830;19;20046;-62
2022/05/04 09:07:01;;;;;;;1.40;0.95;;;;;;;15.74;100.00;99999.16;7395979;19;20011;-62
2022/05/04 09:09:27;;;;;;;3.08;1.02;;;;;;;15.83;100.00;99990.50;7395033;19;20011;-61
2022/05/04 09:11:54;;;;;;;2.25;1.45;;;;;;;15.90;100.00;99995.59;7395885;19;20014;-61
2022/05/04 09:14:25;;;;;;;5.60;1.70;;;;;;;15.88;100.00;99998.16;7396339;19;20011;-62
2022/05/04 09:16:52;;;;;;;3.50;1.42;;;;;;;15.82;100.00;99997.38;7395347;19;20055;-61
2022/05/04 09:19:19;;;;;;;1.45;1.27;;;;;;;15.77;100.00;99992.50;7394953;19;20022;-61
2022/05/04 09:21:47;;;;;;;5.68;1.60;;;;;;;15.77;100.00;99998.91;7397637;19;20031;-62
2022/05/04 09:24:25;;;;;;;3.28;1.60;;;;;;;15.79;100.00;99995.56;7395983;19;20086;-61
2022/05/04 09:26:55;;;;;;;1.75;0.90;;;;;;;15.77;100.00;99996.09;7396578;19;20015;-61
2022/05/04 09:29:32;;;;;;;4.22;1.50;;;;;;;15.74;100.00;99994.28;7395895;19;20304;-61
2022/05/04 09:31:59;;;;;;;1.38;0.85;;;;;;;15.72;100.00;100002.47;7394042;19;20408;-61
2022/05/04 09:34:35;;;;;;;5.57;1.40;;;;;;;15.67;100.00;99999.66;7394212;19;20014;-61
2022/05/04 09:45:37;;;;;;;2.15;0.90;;;;;;;15.75;100.00;99995.84;7395966;19;20044;-61
2022/05/04 09:48:04;;;;;;;3.67;1.77;;;;;;;15.83;100.00;99999.66;7393140;19;20383;-61
2022/05/04 09:50:40;;;;;;;1.60;1.33;;;;;;;15.87;100.00;100007.88;7393246;19;20358;-62
2022/05/04 09:53:07;;;;;;;1.50;0.75;;;;;;;15.90;100.00;100009.63;7393458;19;20033;-61
2022/05/04 09:55:35;;;;;;;2.85;1.20;;;;;;;15.86;100.00;100007.09;7394834;19;20415;-61
2022/05/04 09:58:02;;;;;;;2.55;0.45;;;;;;;15.98;100.00;100013.50;7391713;19;20095;-62
2022/05/04 10:00:28;;;;;;;2.72;1.75;;;;;;;16.13;100.00;100008.41;7393344;19;20010;-62
2022/05/04 10:02:56;;;;;;;3.63;1.17;;;;;;;16.29;100.00;100004.81;7391797;19;20023;-62
2022/05/04 10:05:23;;;;;;;2.33;1.00;;;;;;;16.17;100.00;100000.50;7392886;19;20470;-62
2022/05/04 10:07:51;;;;;;;3.70;1.30;;;;;;;16.12;100.00;100012.47;7392252;19;20014;-63
2022/05/04 10:10:20;;;;;;;3.80;1.23;;;;;;;16.14;100.00;100009.16;7392687;19;20018;-62
2022/05/04 10:12:46;;;;;;;6.75;2.22;;;;;;;16.11;100.00;99993.34;7393029;19;20018;-63
2022/05/04 10:15:15;;;;;;;6.03;2.38;;;;;;;16.15;100.00;99994.63;7393350;19;20036;-63
2022/05/04 10:17:44;;;;;;;6.15;1.60;;;;;;;16.21;100.00;99995.38;7392419;19;20097;-63
2022/05/04 10:20:18;;;;;;;3.85;1.02;;;;;;;16.25;100.00;99993.06;7392213;19;20031;-63
2022/05/04 10:23:08;;;;;;;3.10;1.27;;;;;;;16.43;100.00;99992.56;7397307;19;20010;-63
2022/05/04 10:25:35;;;;;;;4.43;0.65;;;;;;;16.63;100.00;99989.47;7394838;19;20355;-63
2022/05/04 10:28:11;;;;;;;3.50;1.15;;;;;;;16.84;100.00;99992.00;7392481;19;20011;-63
2022/05/04 10:30:47;;;;;;;3.45;0.73;;;;;;;17.10;100.00;99987.56;7392457;19;20014;-63
2022/05/04 10:33:17;;;;;;;2.17;0.70;;;;;;;17.43;100.00;99981.03;7392518;19;20035;-63
2022/05/04 10:35:47;;;;;;;4.47;1.27;;;;;;;18.00;100.00;99978.13;7394702;19;20363;-63
2022/05/04 10:38:27;;;;;;;2.88;0.57;;;;;;;18.50;100.00;99969.25;7392189;19;20462;-64
2022/05/04 10:40:55;;;;;;;3.10;0.88;;;;;;;18.36;100.00;99964.00;7390946;19;20011;-63
2022/05/04 10:43:41;;;;;;;0.95;0.57;;;;;;;18.15;100.00;99969.28;7391683;19;20363;-63
2022/05/04 10:46:18;;;;;;;3.97;1.27;;;;;;;18.21;100.00;99977.72;7396511;19;20014;-64
2022/05/04 10:48:45;;;;;;;3.63;0.80;;;;;;;18.36;100.00;99978.88;7391730;19;20011;-64
2022/05/04 10:51:20;;;;;;;1.27;0.70;;;;;;;18.27;100.00;99972.78;7391251;19;20025;-63
2022/05/04 10:53:50;;;;;;;2.10;1.35;;;;;;;18.00;100.00;99978.13;7390706;19;20011;-63
2022/05/04 10:56:19;;;;;;;1.83;0.70;;;;;;;17.91;100.00;99977.69;7396105;19;20021;-64
2022/05/04 10:58:52;;;;;;;0.70;0.70;;;;;;;17.76;100.00;99983.66;7390418;19;20049;-63
2022/05/04 11:01:31;;;;;;;2.42;0.65;;;;;;;17.53;100.00;99975.88;7391096;19;20007;-63
2022/05/04 11:04:10;;;;;;;4.75;1.35;;;;;;;17.24;100.00;99991.34;7389764;19;20019;-64
2022/05/04 11:06:58;;;;;;;3.22;1.00;;;;;;;17.09;100.00;99988.06;7392100;19;20017;-63
2022/05/04 11:09:31;;;;;;;1.92;1.25;;;;;;;17.01;100.00;99995.53;7391017;19;20014;-63
2022/05/04 11:12:07;;;;;;;2.72;1.02;;;;;;;16.98;100.00;99996.56;7390597;19;20470;-63
2022/05/04 11:14:35;;;;;;;10.95;1.67;;;;;;;16.79;100.00;100001.19;7390319;19;20308;-64
2022/05/04 11:17:08;;;;;;;0.90;0.50;;;;;;;16.84;100.00;100003.25;7391040;19;20029;-63
2022/05/04 11:19:34;;;;;;;3.33;1.10;;;;;;;16.90;100.00;99999.13;7388759;19;20015;-63
2022/05/04 11:22:01;;;;;;;1.15;0.95;;;;;;;16.75;100.00;100001.47;7394067;19;20018;-63
2022/05/04 11:24:28;;;;;;;2.25;0.95;;;;;;;16.67;100.00;99989.97;7390865;19;20010;-63
2022/05/04 11:26:55;;;;;;;1.75;1.02;;;;;;;16.59;100.00;99991.78;7387953;19;20078;-63
2022/05/04 11:29:27;;;;;;;1.45;0.55;;;;;;;16.46;100.00;99999.19;7390601;19;20025;-63
2022/05/04 11:31:56;;;;;;;4.38;1.23;;;;;;;16.34;100.00;100001.25;7389230;19;20381;-64
2022/05/04 11:34:23;;;;;;;4.22;1.95;;;;;;;16.25;100.00;100003.53;7390896;19;20011;-64
2022/05/04 11:36:51;;;;;;;3.58;1.10;;;;;;;16.27;100.00;99998.94;7390650;19;20002;-64
2022/05/04 11:39:19;;;;;;;4.15;1.65;;;;;;;16.38;100.00;100006.59;7389941;19;20011;-63
2022/05/04 11:41:47;;;;;;;9.02;2.05;;;;;;;16.56;100.00;100004.06;7389735;19;20010;-64
2022/05/04 11:44:14;;;;;;;2.55;1.60;;;;;;;16.82;100.00;99998.16;7387255;19;20445;-64
2022/05/04 11:46:44;;;;;;;9.38;2.90;;;;;;;16.95;100.00;100003.22;7390052;19;20053;-64
2022/05/04 11:49:11;;;;;;;3.65;1.90;;;;;;;16.85;100.00;100004.78;7390076;19;20011;-64
2022/05/04 11:51:38;;;;;;;7.72;1.75;;;;;;;16.91;100.00;99997.88;7389158;19;20458;-57